Time;durP1;ratioP1;P1;durP2;ratioP2;P2;SDS_P1;SDS_P2;PMS_P1;PMS_P2;Temp;Humidity;BMP_temperature;BMP_pressure;BME280_temperature;BME280_humidity;BME280_pressure;Samples;Min_cycle;Max_cycle;Signal;HPM_P1;HPM_P2
2023/12/27 00:00:36;;;;;;;10.30;2.88;;;;;;;12.49;47.96;101860.03;5025388;28;20033;-56
2023/12/27 00:03:01;;;;;;;5.70;2.67;;;;;;;12.50;47.19;101859.06;5022230;28;20022;-56
2023/12/27 00:05:27;;;;;;;12.90;3.28;;;;;;;12.47;47.22;101867.34;5025075;28;20120;-56
2023/12/27 00:07:53;;;;;;;9.98;3.05;;;;;;;12.45;47.51;101862.09;5006049;28;20490;-56
2023/12/27 00:10:19;;;;;;;12.35;2.72;;;;;;;12.42;48.74;101877.59;5024096;28;20073;-56
2023/12/27 00:12:44;;;;;;;10.80;3.05;;;;;;;12.39;47.60;101881.38;5022757;28;20112;-56
2023/12/27 00:15:10;;;;;;;6.63;2.83;;;;;;;12.36;47.40;101872.69;5025356;28;20126;-56
2023/12/27 00:17:35;;;;;;;8.25;2.72;;;;;;;12.33;47.58;101864.84;5022040;28;20029;-56
2023/12/27 00:20:00;;;;;;;8.43;2.65;;;;;;;12.31;48.39;101874.88;5022981;28;20108;-56
2023/12/27 00:22:26;;;;;;;4.00;1.90;;;;;;;12.26;48.39;101867.13;5021102;28;20064;-56
2023/12/27 00:24:51;;;;;;;13.48;2.95;;;;;;;12.24;48.10;101879.81;5023732;28;20026;-56
2023/12/27 00:27:17;;;;;;;9.52;2.92;;;;;;;12.22;48.56;101882.63;5023620;28;20064;-56
2023/12/27 00:29:42;;;;;;;3.58;2.25;;;;;;;12.16;47.48;101861.59;5022426;28;20025;-56
2023/12/27 00:32:09;;;;;;;7.57;2.47;;;;;;;12.15;48.30;101862.56;5023519;28;20045;-56
2023/12/27 00:34:35;;;;;;;4.43;2.35;;;;;;;12.13;48.42;101861.81;5023077;28;20030;-56
2023/12/27 00:37:00;;;;;;;7.78;2.88;;;;;;;12.10;47.83;101859.38;5024120;28;20033;-56
2023/12/27 00:39:26;;;;;;;9.88;2.65;;;;;;;12.07;48.18;101854.22;5037536;28;20033;-56
2023/12/27 00:41:52;;;;;;;4.63;1.85;;;;;;;12.03;47.23;101847.34;5054139;28;20115;-56
2023/12/27 00:44:18;;;;;;;5.38;2.35;;;;;;;12.02;47.49;101847.47;5029287;28;20095;-57
2023/12/27 00:46:43;;;;;;;12.38;2.67;;;;;;;12.01;48.00;101851.97;5024074;28;20470;-56
2023/12/27 00:49:08;;;;;;;10.65;3.28;;;;;;;12.01;48.52;101846.63;5033853;28;20080;-56
2023/12/27 00:51:34;;;;;;;9.88;2.63;;;;;;;11.99;47.31;101843.19;5034120;28;20048;-56
2023/12/27 00:53:59;;;;;;;3.75;2.13;;;;;;;12.01;47.67;101851.97;5033651;28;20029;-56
2023/12/27 00:56:24;;;;;;;5.05;2.63;;;;;;;12.02;48.23;101852.84;5032658;28;20517;-56
2023/12/27 00:58:51;;;;;;;9.80;3.50;;;;;;;12.02;48.24;101853.72;5033964;28;20053;-56
2023/12/27 01:01:16;;;;;;;4.57;2.58;;;;;;;12.01;47.41;101846.63;5031644;28;20033;-56
2023/12/27 01:03:41;;;;;;;10.55;2.85;;;;;;;12.04;48.66;101848.22;5033802;28;20029;-56
2023/12/27 01:06:08;;;;;;;11.80;2.92;;;;;;;12.06;48.65;101848.97;5033766;28;20498;-56
2023/12/27 01:08:33;;;;;;;8.27;2.90;;;;;;;12.06;48.65;101846.28;5032608;28;20409;-56
2023/12/27 01:10:59;;;;;;;4.20;2.33;;;;;;;12.07;47.90;101847.97;5032523;28;20057;-56
2023/12/27 01:13:24;;;;;;;5.43;2.40;;;;;;;12.06;48.69;101839.06;5032361;28;20029;-56
2023/12/27 01:15:50;;;;;;;4.18;2.60;;;;;;;12.06;48.05;101847.13;5033500;28;20524;-56
2023/12/27 01:18:15;;;;;;;12.00;2.70;;;;;;;12.06;48.06;101849.81;5032259;28;20113;-56
2023/12/27 01:20:40;;;;;;;12.88;2.75;;;;;;;12.08;48.49;101847.03;5033439;28;20132;-56
2023/12/27 01:23:06;;;;;;;7.18;2.65;;;;;;;12.06;48.53;101849.81;5032188;28;20418;-56
2023/12/27 01:25:31;;;;;;;4.25;3.28;;;;;;;12.07;47.94;101842.63;5031968;28;20053;-56
2023/12/27 01:27:56;;;;;;;8.30;3.05;;;;;;;12.09;49.06;101844.22;5033228;28;20049;-56
2023/12/27 01:30:22;;;;;;;8.30;2.53;;;;;;;12.08;49.00;101842.53;5031793;28;20041;-56
2023/12/27 01:32:47;;;;;;;6.95;2.88;;;;;;;12.09;47.79;101838.84;5033231;28;20064;-56
2023/12/27 01:35:12;;;;;;;6.60;3.00;;;;;;;12.09;47.88;101833.47;5031906;28;20041;-56
2023/12/27 01:37:39;;;;;;;11.65;2.85;;;;;;;12.09;48.11;101824.56;5033279;28;20048;-56
2023/12/27 01:40:08;;;;;;;8.82;3.17;;;;;;;12.10;48.58;101824.44;5039436;28;20029;-56
2023/12/27 01:42:33;;;;;;;12.73;3.65;;;;;;;12.12;49.20;101835.06;5033796;28;20508;-56
2023/12/27 01:44:59;;;;;;;20.70;10.82;;;;;;;12.09;48.71;101833.47;5031969;28;20029;-56
2023/12/27 01:47:25;;;;;;;10.57;5.72;;;;;;;12.10;47.69;101834.34;5031788;28;20076;-56
2023/12/27 01:49:51;;;;;;;30.90;13.52;;;;;;;12.07;48.30;101830.06;5015340;28;20036;-56
2023/12/27 01:52:16;;;;;;;35.00;15.05;;;;;;;12.08;48.91;101830.91;5032740;28;20501;-56
2023/12/27 01:54:42;;;;;;;47.55;19.55;;;;;;;12.11;48.18;101833.38;5033087;28;20094;-56
2023/12/27 01:57:07;;;;;;;34.28;16.95;;;;;;;12.09;48.48;101830.78;5031805;28;20029;-56
2023/12/27 01:59:33;;;;;;;33.80;16.33;;;;;;;12.08;49.05;101823.72;5032853;28;20478;-56
2023/12/27 02:01:59;;;;;;;29.88;16.67;;;;;;;12.08;48.44;101820.16;5031756;28;20516;-56
2023/12/27 02:04:24;;;;;;;28.67;12.55;;;;;;;12.09;49.31;101824.56;5032996;28;20060;-56
2023/12/27 02:06:51;;;;;;;17.48;9.00;;;;;;;12.09;48.07;101821.88;5032811;28;20030;-56
2023/12/27 02:09:16;;;;;;;12.95;6.32;;;;;;;12.10;49.26;101824.44;5031577;28;20112;-56
2023/12/27 02:11:42;;;;;;;11.98;5.65;;;;;;;12.11;49.50;101814.56;5035519;28;20189;-56
2023/12/27 02:14:07;;;;;;;10.88;4.57;;;;;;;12.12;48.23;101810.91;5038203;28;20041;-56
2023/12/27 02:16:34;;;;;;;9.77;4.13;;;;;;;12.13;48.10;101816.16;5038928;28;20551;-56
2023/12/27 02:19:01;;;;;;;8.02;3.78;;;;;;;12.14;48.23;101817.03;5039466;28;20033;-56
2023/12/27 02:21:27;;;;;;;6.70;4.18;;;;;;;12.13;48.15;101813.47;5021781;28;20057;-56
2023/12/27 02:23:53;;;;;;;9.82;4.00;;;;;;;12.14;49.12;101814.34;5038147;28;20068;-56
2023/12/27 02:26:20;;;;;;;5.65;3.17;;;;;;;12.14;48.53;101809.81;5037927;28;20038;-56
2023/12/27 02:28:45;;;;;;;9.57;3.55;;;;;;;12.12;48.50;101803.69;5054113;28;20531;-56
2023/12/27 02:31:10;;;;;;;9.45;3.05;;;;;;;12.15;48.81;101800.78;5057726;28;20033;-56
2023/12/27 02:33:36;;;;;;;12.07;2.80;;;;;;;12.16;49.14;101791.78;5057950;28;20454;-56
2023/12/27 02:36:02;;;;;;;5.07;2.45;;;;;;;12.16;48.28;101797.13;5058142;28;20033;-56
2023/12/27 02:38:27;;;;;;;4.43;2.75;;;;;;;12.16;48.86;101789.09;5059021;28;20112;-56
2023/12/27 02:40:53;;;;;;;7.50;3.00;;;;;;;12.17;47.98;101779.19;5057798;28;20125;-57
2023/12/27 02:43:18;;;;;;;4.38;2.33;;;;;;;12.21;48.24;101777.97;5059137;28;20029;-56
2023/12/27 02:45:43;;;;;;;4.30;2.45;;;;;;;12.22;48.90;101775.19;5059592;28;20412;-56
2023/12/27 02:48:09;;;;;;;7.55;2.75;;;;;;;12.21;48.51;101770.78;5041362;28;20100;-56
2023/12/27 02:50:34;;;;;;;6.40;2.08;;;;;;;12.23;49.14;101760.78;5059196;28;20036;-55
2023/12/27 02:52:59;;;;;;;7.22;3.00;;;;;;;12.26;48.22;101765.91;5057453;28;20064;-56
2023/12/27 02:55:25;;;;;;;9.43;2.40;;;;;;;12.31;48.87;101767.41;5057616;28;20025;-56
2023/12/27 02:57:50;;;;;;;9.50;2.47;;;;;;;12.32;48.38;101763.72;5059022;28;20489;-56
2023/12/27 03:00:16;;;;;;;4.25;2.63;;;;;;;12.35;48.46;101752.75;5057677;28;20037;-56
2023/12/27 03:02:41;;;;;;;6.82;2.75;;;;;;;12.37;48.59;101756.19;5058888;28;20040;-56
2023/12/27 03:05:07;;;;;;;6.93;2.50;;;;;;;12.39;49.69;101743.50;5057654;28;20407;-56
2023/12/27 03:07:32;;;;;;;5.45;2.50;;;;;;;12.43;49.29;101744.94;5058944;28;20025;-56
2023/12/27 03:09:57;;;;;;;9.68;2.50;;;;;;;12.45;49.78;101741.16;5058861;28;20040;-56
2023/12/27 03:12:23;;;;;;;5.80;2.35;;;;;;;12.48;49.31;101742.78;5041206;28;20035;-56
2023/12/27 03:14:50;;;;;;;8.02;2.47;;;;;;;12.51;49.55;101731.78;5058963;28;20044;-56
2023/12/27 03:17:15;;;;;;;5.57;2.70;;;;;;;12.54;49.67;101731.53;5058686;28;20033;-56
2023/12/27 03:19:40;;;;;;;10.63;2.83;;;;;;;12.57;48.59;101725.91;5057590;28;20099;-56
2023/12/27 03:22:06;;;;;;;4.65;2.50;;;;;;;12.60;50.09;101725.69;5058595;28;20079;-56
2023/12/27 03:24:32;;;;;;;6.53;2.33;;;;;;;12.62;48.90;101721.03;5054988;28;20033;-56
2023/12/27 03:26:57;;;;;;;3.40;2.08;;;;;;;12.65;49.35;101718.09;5055588;28;20560;-56
2023/12/27 03:29:22;;;;;;;3.83;2.00;;;;;;;12.67;50.22;101717.00;5055576;28;20029;-56
2023/12/27 03:31:48;;;;;;;5.25;2.65;;;;;;;12.71;49.52;101714.94;5055656;28;20519;-56
2023/12/27 03:34:13;;;;;;;4.50;2.20;;;;;;;12.74;49.95;101712.00;5055491;28;20040;-56
2023/12/27 03:36:38;;;;;;;7.93;1.92;;;;;;;12.77;50.04;101701.03;5054957;28;20151;-56
2023/12/27 03:39:04;;;;;;;7.57;2.50;;;;;;;12.78;50.02;101692.00;5054937;28;20029;-56
2023/12/27 03:41:29;;;;;;;7.57;3.05;;;;;;;12.83;48.96;101700.53;5056279;28;20040;-56
2023/12/27 03:43:58;;;;;;;9.35;2.13;;;;;;;12.86;49.06;101684.16;5055249;28;20496;-57
2023/12/27 03:46:24;;;;;;;8.68;3.13;;;;;;;12.89;50.19;101683.06;5054872;28;20065;-56
2023/12/27 03:48:49;;;;;;;12.93;2.42;;;;;;;12.93;49.73;101674.59;5056436;28;20461;-57
2023/12/27 03:51:14;;;;;;;6.78;2.90;;;;;;;12.96;49.40;101673.50;5055667;28;20040;-56
2023/12/27 03:53:40;;;;;;;4.63;2.78;;;;;;;12.98;50.38;101668.88;5053577;28;20041;-56
2023/12/27 03:56:10;;;;;;;6.65;2.97;;;;;;;12.99;49.99;101674.13;5055314;28;20116;-56
2023/12/27 03:58:35;;;;;;;7.38;2.15;;;;;;;13.00;49.20;101659.72;5054943;28;20033;-56
2023/12/27 04:01:03;;;;;;;6.85;2.65;;;;;;;13.06;50.11;101664.59;5055004;28;20029;-56
2023/12/27 04:03:28;;;;;;;7.40;2.95;;;;;;;13.09;49.77;101661.66;5053521;28;20111;-56
2023/12/27 04:05:53;;;;;;;3.35;2.60;;;;;;;13.10;49.65;101649.06;5053621;28;20512;-56
2023/12/27 04:08:18;;;;;;;10.60;3.13;;;;;;;13.15;50.40;101647.72;5054632;28;20033;-56
2023/12/27 04:10:45;;;;;;;7.25;2.28;;;;;;;13.19;50.13;101651.88;5054729;28;20025;-56
2023/12/27 04:13:10;;;;;;;10.30;2.53;;;;;;;13.22;49.47;101651.63;5054331;28;20031;-56
2023/12/27 04:15:36;;;;;;;5.78;2.17;;;;;;;13.23;50.24;101645.25;5054559;28;20033;-56
2023/12/27 04:18:01;;;;;;;6.78;2.25;;;;;;;13.27;50.06;101643.16;5053376;28;20087;-56
2023/12/27 04:20:26;;;;;;;7.85;3.20;;;;;;;13.30;49.63;101638.38;5054634;28;20400;-56
2023/12/27 04:22:52;;;;;;;12.82;2.65;;;;;;;13.32;50.82;101644.50;5053112;28;20086;-56
2023/12/27 04:25:17;;;;;;;7.68;2.05;;;;;;;13.35;49.16;101644.25;5054269;28;20137;-56
2023/12/27 04:27:42;;;;;;;6.88;2.30;;;;;;;13.39;49.21;101650.22;5054537;28;20029;-56
2023/12/27 04:30:08;;;;;;;4.13;2.05;;;;;;;13.40;50.92;101641.16;5053084;28;20504;-56
2023/12/27 04:32:34;;;;;;;8.90;2.88;;;;;;;13.43;49.50;101645.47;5054027;28;20025;-56
2023/12/27 04:34:59;;;;;;;10.55;2.80;;;;;;;13.46;49.86;101639.78;5054196;28;20108;-56
2023/12/27 04:37:24;;;;;;;7.93;2.33;;;;;;;13.47;50.52;101634.31;5054150;28;20443;-57
2023/12/27 04:39:50;;;;;;;11.73;2.60;;;;;;;13.51;50.58;101632.22;5052969;28;20048;-56
2023/12/27 04:42:15;;;;;;;3.83;2.28;;;;;;;13.51;49.96;101627.69;5054120;28;20542;-56
2023/12/27 04:44:40;;;;;;;4.38;2.13;;;;;;;13.56;50.13;101640.75;5053848;28;20120;-56
2023/12/27 04:47:07;;;;;;;6.97;2.38;;;;;;;13.58;50.27;101641.47;5053940;28;20508;-56
2023/12/27 04:49:32;;;;;;;4.63;2.22;;;;;;;13.58;50.15;101628.00;5053886;28;20029;-56
2023/12/27 04:51:58;;;;;;;16.38;2.65;;;;;;;13.59;50.07;101629.72;5052907;28;20082;-57
2023/12/27 04:54:23;;;;;;;10.80;2.40;;;;;;;13.62;49.97;101626.78;5053685;28;20045;-57
2023/12/27 04:56:48;;;;;;;9.25;2.15;;;;;;;13.66;49.44;101630.91;5053810;28;20033;-56
2023/12/27 04:59:15;;;;;;;6.22;2.00;;;;;;;13.66;51.01;101615.63;5053816;28;20039;-56
2023/12/27 05:01:40;;;;;;;9.90;2.20;;;;;;;13.68;51.07;101623.59;5052483;28;20040;-56
2023/12/27 05:04:07;;;;;;;9.40;1.75;;;;;;;13.68;50.85;101623.59;5053847;28;20029;-56
2023/12/27 05:06:32;;;;;;;3.88;1.85;;;;;;;13.68;49.77;101618.19;5053754;28;20029;-56
2023/12/27 05:08:59;;;;;;;10.70;2.30;;;;;;;13.68;49.80;101608.25;5053879;28;20471;-56
2023/12/27 05:11:24;;;;;;;11.65;2.47;;;;;;;13.68;50.45;101610.13;5053922;28;20048;-56
2023/12/27 05:13:50;;;;;;;7.13;2.58;;;;;;;13.66;51.05;101598.59;5052390;28;20115;-56
2023/12/27 05:16:16;;;;;;;10.95;2.72;;;;;;;13.65;50.09;101596.91;5053592;28;20029;-56
2023/12/27 05:18:43;;;;;;;3.97;1.67;;;;;;;13.66;50.83;101598.59;5052410;28;20381;-56
2023/12/27 05:21:09;;;;;;;11.40;2.67;;;;;;;13.64;49.97;101596.06;5035502;28;20530;-56
2023/12/27 05:23:35;;;;;;;5.55;2.63;;;;;;;13.61;50.91;101590.06;5052038;28;20037;-56
2023/12/27 05:26:01;;;;;;;8.05;2.20;;;;;;;13.63;51.34;101588.09;5052098;28;20399;-56
2023/12/27 05:28:28;;;;;;;6.05;1.98;;;;;;;13.61;50.38;101593.63;5053122;28;20063;-56
2023/12/27 05:30:54;;;;;;;6.50;2.45;;;;;;;13.61;50.79;101595.44;5053352;28;20025;-56
2023/12/27 05:33:19;;;;;;;5.75;2.45;;;;;;;13.56;50.76;101585.09;5035333;28;20136;-56
2023/12/27 05:35:44;;;;;;;12.50;2.67;;;;;;;13.62;51.57;101592.66;5053178;28;20036;-56
2023/12/27 05:38:10;;;;;;;5.95;1.73;;;;;;;13.63;50.20;101588.09;5053045;28;20021;-56
2023/12/27 05:40:36;;;;;;;6.95;1.85;;;;;;;13.63;50.41;101585.41;5053012;28;20020;-56
2023/12/27 05:43:01;;;;;;;9.93;1.85;;;;;;;13.61;51.27;101580.16;5053100;28;20029;-56
2023/12/27 05:45:26;;;;;;;7.53;2.30;;;;;;;13.61;50.59;101573.91;5052881;28;20070;-56
2023/12/27 05:47:52;;;;;;;3.63;1.90;;;;;;;13.61;50.42;101576.59;5052010;28;20116;-56
2023/12/27 05:50:17;;;;;;;3.55;1.60;;;;;;;13.58;50.79;101574.19;5053157;28;20048;-56
2023/12/27 05:52:44;;;;;;;5.90;2.08;;;;;;;13.57;50.63;101567.09;5052435;28;20060;-56
2023/12/27 05:55:09;;;;;;;3.38;1.60;;;;;;;13.55;51.20;101564.53;5052913;28;20033;-56
2023/12/27 05:57:35;;;;;;;5.78;1.98;;;;;;;13.54;51.61;101561.97;5052785;28;20017;-56
2023/12/27 06:00:00;;;;;;;8.27;2.20;;;;;;;13.52;52.44;101548.63;5051562;28;20025;-56
2023/12/27 06:02:25;;;;;;;7.53;1.95;;;;;;;13.53;51.00;101557.56;5052806;28;20424;-56
2023/12/27 06:04:51;;;;;;;5.30;1.80;;;;;;;13.56;51.21;101560.00;5052897;28;20029;-56
2023/12/27 06:07:16;;;;;;;10.15;1.70;;;;;;;13.57;51.55;101556.34;5052708;28;20477;-56
2023/12/27 06:09:42;;;;;;;12.18;2.42;;;;;;;13.55;50.95;101555.59;5052695;28;20025;-56
2023/12/27 06:12:08;;;;;;;5.43;1.92;;;;;;;13.52;51.27;101550.47;5051596;28;20092;-56
2023/12/27 06:14:34;;;;;;;14.80;4.05;;;;;;;13.58;51.34;101558.88;5051478;28;20396;-56
2023/12/27 06:16:59;;;;;;;10.90;2.20;;;;;;;13.58;51.80;101552.63;5052910;28;20017;-56
2023/12/27 06:19:25;;;;;;;8.63;2.03;;;;;;;13.57;51.96;101551.78;5051458;28;20535;-56
2023/12/27 06:21:50;;;;;;;5.13;1.92;;;;;;;13.56;52.12;101550.09;5052616;28;20028;-56
2023/12/27 06:24:15;;;;;;;7.72;2.65;;;;;;;13.54;51.72;101543.13;5052575;28;20021;-56
2023/12/27 06:26:41;;;;;;;5.63;2.40;;;;;;;13.58;51.37;101544.56;5051168;28;20051;-56
2023/12/27 06:29:06;;;;;;;5.13;2.00;;;;;;;13.54;52.94;101518.91;5052455;28;20061;-56
2023/12/27 06:31:34;;;;;;;5.28;2.20;;;;;;;13.54;51.70;101525.13;5051206;28;20383;-56
2023/12/27 06:34:00;;;;;;;6.35;2.03;;;;;;;13.55;51.53;101520.59;5052737;28;20031;-56
2023/12/27 06:36:26;;;;;;;4.47;2.28;;;;;;;13.57;51.95;101506.00;5051327;28;20458;-56
2023/12/27 06:38:51;;;;;;;1.83;1.40;;;;;;;13.58;52.72;101505.03;5052615;28;20029;-56
2023/12/27 06:41:16;;;;;;;6.90;2.65;;;;;;;13.60;52.74;101499.50;5051257;28;20534;-56
2023/12/27 06:43:43;;;;;;;5.03;2.00;;;;;;;13.60;53.08;101502.22;5051192;28;20029;-56
2023/12/27 06:46:09;;;;;;;5.97;2.63;;;;;;;13.60;52.66;101502.22;5051509;28;20033;-56
2023/12/27 06:48:34;;;;;;;3.15;1.92;;;;;;;13.62;53.11;101494.88;5050827;28;20123;-56
2023/12/27 06:51:03;;;;;;;8.18;2.47;;;;;;;13.65;52.95;101503.50;5051246;28;20469;-56
2023/12/27 06:53:28;;;;;;;5.80;2.63;;;;;;;13.63;52.62;101493.88;5050936;28;20094;-56
2023/12/27 06:55:54;;;;;;;2.97;2.25;;;;;;;13.68;51.92;101505.13;5034609;28;20100;-56
2023/12/27 06:58:21;;;;;;;6.03;2.28;;;;;;;13.71;51.97;101499.44;5028295;28;20053;-56
2023/12/27 07:00:46;;;;;;;6.60;2.22;;;;;;;13.71;52.23;101494.06;5015204;28;20056;-56
2023/12/27 07:03:12;;;;;;;6.13;2.13;;;;;;;13.74;52.92;101493.78;5016889;28;20088;-56
2023/12/27 07:05:38;;;;;;;3.35;1.90;;;;;;;13.78;52.27;101489.84;5016443;28;20034;-56
2023/12/27 07:08:04;;;;;;;5.75;1.65;;;;;;;13.79;52.92;101491.56;5031776;28;20111;-56
2023/12/27 07:10:29;;;;;;;4.97;2.47;;;;;;;13.83;52.67;101493.00;5015991;28;20029;-56
2023/12/27 07:12:54;;;;;;;8.00;3.00;;;;;;;13.81;52.56;101484.22;5016290;28;20113;-56
2023/12/27 07:15:20;;;;;;;9.13;2.55;;;;;;;13.88;52.84;101497.00;5014808;28;20060;-56
2023/12/27 07:17:46;;;;;;;6.30;2.80;;;;;;;13.89;53.48;101493.31;5016144;28;20493;-56
2023/12/27 07:20:11;;;;;;;3.03;1.92;;;;;;;13.92;52.44;101492.19;5031389;28;20025;-56
2023/12/27 07:22:37;;;;;;;6.78;2.53;;;;;;;13.93;52.66;101493.91;5031377;28;20052;-57
2023/12/27 07:25:02;;;;;;;5.38;2.13;;;;;;;13.95;52.17;101486.56;5016181;28;20516;-56
2023/12/27 07:27:28;;;;;;;6.53;2.30;;;;;;;13.98;52.54;101491.66;5016423;28;20062;-57
2023/12/27 07:29:53;;;;;;;6.55;3.25;;;;;;;14.01;53.56;101503.00;5016470;28;20057;-56
2023/12/27 07:32:18;;;;;;;8.07;2.58;;;;;;;14.04;52.23;101504.59;5016292;28;20432;-56
2023/12/27 07:34:44;;;;;;;3.05;2.20;;;;;;;14.06;52.34;101499.94;5015565;28;20038;-56
2023/12/27 07:37:09;;;;;;;5.78;2.40;;;;;;;14.08;52.68;101497.94;5015858;28;20037;-56
2023/12/27 07:39:34;;;;;;;6.40;2.50;;;;;;;14.11;53.03;101486.03;5014635;28;20033;-56
2023/12/27 07:42:00;;;;;;;6.80;2.15;;;;;;;14.12;53.59;101476.97;5015875;28;20026;-56
2023/12/27 07:44:26;;;;;;;4.72;2.33;;;;;;;14.15;53.19;101474.00;5030965;28;20032;-56
2023/12/27 07:46:53;;;;;;;2.15;1.92;;;;;;;14.20;53.66;101475.31;5015724;28;20022;-56
2023/12/27 07:49:18;;;;;;;2.65;1.83;;;;;;;14.23;52.51;101474.19;5053098;28;20041;-56
2023/12/27 07:51:44;;;;;;;3.90;2.20;;;;;;;14.24;52.67;101487.50;5055403;28;20032;-56
2023/12/27 07:54:10;;;;;;;1.30;1.13;;;;;;;14.26;52.86;101484.69;5054001;28;20037;-56
2023/12/27 07:56:36;;;;;;;1.92;1.05;;;;;;;14.29;54.54;101485.25;5055488;28;20413;-57
2023/12/27 07:59:03;;;;;;;1.17;0.90;;;;;;;14.37;54.46;101482.78;5054810;28;20071;-57
2023/12/27 08:01:31;;;;;;;0.93;0.70;;;;;;;14.46;53.41;101471.16;5055332;28;20032;-57
2023/12/27 08:03:57;;;;;;;1.70;0.77;;;;;;;14.57;53.57;101487.19;5055236;28;20028;-57
2023/12/27 08:06:22;;;;;;;0.70;0.38;;;;;;;14.66;54.43;101476.56;5053711;28;20039;-57
2023/12/27 08:08:48;;;;;;;0.95;0.70;;;;;;;14.75;54.79;101464.94;5036698;28;20037;-57
2023/12/27 08:11:13;;;;;;;0.80;0.70;;;;;;;14.88;53.58;101468.25;5053838;28;20063;-57
2023/12/27 08:13:39;;;;;;;1.98;1.05;;;;;;;14.98;53.97;101461.84;5053476;28;20032;-56
2023/12/27 08:16:05;;;;;;;2.08;1.27;;;;;;;15.04;53.89;101441.53;5054849;28;20497;-56
2023/12/27 08:18:31;;;;;;;2.45;0.90;;;;;;;15.14;53.23;101445.94;5053864;28;20067;-56
2023/12/27 08:20:57;;;;;;;2.30;1.05;;;;;;;15.21;54.59;101446.22;5053540;28;20029;-56
2023/12/27 08:23:23;;;;;;;0.80;0.70;;;;;;;15.27;54.19;101434.00;5053360;28;20029;-56
2023/12/27 08:25:48;;;;;;;0.35;0.35;;;;;;;15.35;55.10;101442.22;5053408;28;20033;-56
2023/12/27 08:28:14;;;;;;;4.82;0.50;;;;;;;15.40;53.50;101440.78;5053170;28;20039;-59
2023/12/27 08:30:40;;;;;;;0.30;0.30;;;;;;;15.47;53.67;101441.06;5053152;28;20120;-57
2023/12/27 08:33:06;;;;;;;0.43;0.28;;;;;;;15.52;53.48;101450.44;5052092;28;20036;-56
2023/12/27 08:35:35;;;;;;;0.20;0.20;;;;;;;15.58;53.93;101455.25;5054522;28;20029;-57
2023/12/27 08:38:01;;;;;;;0.90;0.50;;;;;;;15.66;52.87;101458.06;5053076;28;20049;-56
2023/12/27 08:40:26;;;;;;;0.30;0.30;;;;;;;15.69;52.99;101444.28;5054419;28;20469;-57
2023/12/27 08:42:53;;;;;;;3.92;0.60;;;;;;;15.74;53.98;101439.28;5054209;28;20033;-57
2023/12/27 08:45:18;;;;;;;1.33;0.30;;;;;;;15.78;53.52;101428.19;5054386;28;20090;-56
2023/12/27 08:47:44;;;;;;;0.50;0.50;;;;;;;15.79;53.89;101408.28;5053980;28;20440;-57
2023/12/27 08:50:09;;;;;;;0.98;0.50;;;;;;;15.83;53.56;101415.09;5054004;28;20493;-57
2023/12/27 08:52:36;;;;;;;3.90;0.60;;;;;;;15.87;53.90;101405.69;5052436;28;20041;-57
2023/12/27 08:55:03;;;;;;;1.65;0.30;;;;;;;15.91;52.83;101426.03;5052846;28;20051;-57
2023/12/27 08:57:28;;;;;;;1.38;0.20;;;;;;;15.95;53.95;101414.75;5054100;28;20045;-57
2023/12/27 08:59:54;;;;;;;0.20;0.20;;;;;;;15.99;54.01;101418.00;5054016;28;20033;-56
2023/12/27 09:02:19;;;;;;;0.75;0.50;;;;;;;15.98;53.59;101408.19;5053956;28;20417;-57
2023/12/27 09:04:44;;;;;;;1.42;0.47;;;;;;;16.01;52.88;101410.59;5052622;28;20033;-56
2023/12/27 09:07:10;;;;;;;0.65;0.30;;;;;;;16.05;52.39;101412.03;5052187;28;20029;-57
2023/12/27 09:09:35;;;;;;;0.70;0.30;;;;;;;16.07;53.04;101401.91;5053641;28;20029;-56
2023/12/27 09:12:04;;;;;;;2.88;0.20;;;;;;;16.07;53.10;101393.78;5052308;28;20041;-56
2023/12/27 09:14:29;;;;;;;0.20;0.20;;;;;;;16.12;53.33;101391.47;5053703;28;20499;-56
2023/12/27 09:16:55;;;;;;;3.05;0.20;;;;;;;16.12;53.63;101396.88;5019299;28;20167;-57
2023/12/27 09:19:20;;;;;;;0.43;0.40;;;;;;;16.12;53.21;101402.28;5035681;28;20162;-56
2023/12/27 09:21:46;;;;;;;0.20;0.20;;;;;;;16.11;52.87;101403.28;5051487;28;20431;-57
2023/12/27 09:24:12;;;;;;;4.10;0.80;;;;;;;16.12;52.80;101386.06;5052234;28;20112;-57
2023/12/27 09:26:37;;;;;;;1.30;0.60;;;;;;;16.13;52.92;101391.34;5052185;28;20032;-57
2023/12/27 09:29:03;;;;;;;1.17;0.70;;;;;;;16.14;52.18;101403.84;5053444;28;20496;-56
2023/12/27 09:31:30;;;;;;;2.20;0.80;;;;;;;16.16;52.49;101396.41;5053555;28;20126;-57
2023/12/27 09:33:56;;;;;;;2.78;1.42;;;;;;;16.22;52.36;101403.06;5052408;28;20099;-57
2023/12/27 09:36:21;;;;;;;4.82;1.85;;;;;;;16.24;52.81;101403.78;5051510;28;20040;-56
2023/12/27 09:38:47;;;;;;;4.22;0.68;;;;;;;16.28;52.35;101408.72;5053186;28;20044;-56
2023/12/27 09:41:13;;;;;;;0.32;0.32;;;;;;;16.29;53.29;101406.88;5051771;28;20036;-57
2023/12/27 09:43:41;;;;;;;2.72;0.70;;;;;;;16.31;53.16;101402.16;5053219;28;20041;-56
2023/12/27 09:46:07;;;;;;;3.45;0.45;;;;;;;16.31;52.32;101405.72;5051974;28;20063;-57
2023/12/27 09:48:33;;;;;;;3.35;1.00;;;;;;;16.34;51.87;101396.47;5052882;28;20025;-57
2023/12/27 09:51:00;;;;;;;2.05;1.00;;;;;;;16.35;51.92;101398.19;5035232;28;20048;-57
2023/12/27 09:53:25;;;;;;;2.97;0.80;;;;;;;16.36;52.98;101386.34;5052724;28;20420;-57
2023/12/27 09:55:52;;;;;;;1.88;0.60;;;;;;;16.41;52.54;101394.00;5052629;28;20039;-57
2023/12/27 09:58:18;;;;;;;1.02;0.68;;;;;;;16.42;52.52;101385.72;5050419;28;20043;-56
2023/12/27 10:00:45;;;;;;;4.45;0.70;;;;;;;16.44;51.43;101389.16;5051604;28;20562;-57
2023/12/27 10:03:13;;;;;;;2.35;0.47;;;;;;;16.43;52.29;101376.63;5051698;28;20515;-57
2023/12/27 10:05:45;;;;;;;4.05;0.73;;;;;;;16.48;52.48;101371.59;5052891;28;20075;-56
2023/12/27 10:08:11;;;;;;;0.63;0.40;;;;;;;16.49;51.59;101362.50;5051632;28;20108;-57
2023/12/27 10:10:37;;;;;;;2.97;0.75;;;;;;;16.50;52.31;101364.16;5051532;28;20080;-56
2023/12/27 10:13:03;;;;;;;1.30;0.90;;;;;;;16.53;51.78;101369.31;5051632;28;20033;-57
2023/12/27 10:15:29;;;;;;;1.75;0.60;;;;;;;16.54;51.97;101364.75;5051486;28;20043;-57
2023/12/27 10:17:54;;;;;;;3.97;1.00;;;;;;;16.53;51.70;101354.91;5052921;28;20036;-57
2023/12/27 10:20:36;;;;;;;1.13;0.70;;;;;;;16.56;52.02;101366.28;5051575;28;20036;-57
2023/12/27 10:23:02;;;;;;;5.25;1.10;;;;;;;16.60;51.42;101356.88;5051588;28;20033;-57
2023/12/27 10:25:29;;;;;;;2.42;1.17;;;;;;;16.62;51.96;101362.97;5051244;28;20033;-57
2023/12/27 10:27:55;;;;;;;2.60;0.98;;;;;;;16.61;52.31;101358.56;5051339;28;20025;-57
2023/12/27 10:30:21;;;;;;;2.28;0.73;;;;;;;16.62;52.18;101360.28;5052569;28;20033;-57
2023/12/27 10:32:59;;;;;;;4.30;0.90;;;;;;;16.62;50.95;101354.88;5053715;28;20130;-56
2023/12/27 10:35:25;;;;;;;1.80;0.85;;;;;;;16.62;51.45;101354.88;5056211;28;20151;-57
2023/12/27 10:37:58;;;;;;;5.43;1.23;;;;;;;16.61;51.24;101331.50;5055817;28;20078;-57
2023/12/27 10:40:23;;;;;;;5.68;1.25;;;;;;;16.67;52.34;101325.47;5056717;28;20017;-56
2023/12/27 10:42:51;;;;;;;2.50;0.93;;;;;;;16.70;51.60;101329.72;5038685;28;20472;-57
2023/12/27 10:45:16;;;;;;;1.92;0.73;;;;;;;16.68;50.70;101327.19;5055324;28;20021;-56
2023/12/27 10:47:42;;;;;;;4.78;0.70;;;;;;;16.65;51.21;101327.50;5056497;28;20047;-57
2023/12/27 10:50:12;;;;;;;2.67;0.93;;;;;;;16.64;51.04;101306.84;5055004;28;20033;-57
2023/12/27 10:52:40;;;;;;;2.63;0.80;;;;;;;16.67;51.47;101309.25;5056660;28;20028;-57
2023/12/27 10:55:08;;;;;;;4.53;1.30;;;;;;;16.73;50.92;101303.22;5057637;28;20037;-57
2023/12/27 10:57:35;;;;;;;4.88;1.02;;;;;;;16.77;51.39;101296.50;5057310;28;20090;-60
2023/12/27 11:00:03;;;;;;;3.03;0.75;;;;;;;16.77;51.00;101304.63;5058237;28;20036;-57
2023/12/27 11:02:29;;;;;;;4.18;1.13;;;;;;;16.77;51.37;101301.91;5059171;28;20114;-60
2023/12/27 11:04:55;;;;;;;6.40;1.83;;;;;;;16.79;51.49;101305.31;5058608;28;20021;-57
2023/12/27 11:07:21;;;;;;;3.55;1.25;;;;;;;16.84;51.57;101302.09;5056012;28;20511;-57
2023/12/27 11:09:48;;;;;;;4.05;1.17;;;;;;;16.84;50.47;101299.41;5054675;28;20037;-57
2023/12/27 11:12:19;;;;;;;5.40;1.33;;;;;;;16.82;50.92;101286.03;5055008;28;20040;-56
2023/12/27 11:14:46;;;;;;;3.67;1.08;;;;;;;16.83;51.03;101295.84;5056001;28;20037;-56
2023/12/27 11:17:14;;;;;;;2.30;1.15;;;;;;;16.84;51.43;101283.16;5056120;28;20067;-57